Strona główna
METAR-TAF:

METAR-TAF

Lotnisko :

Port lotniczy Ryga

Ryga, Łotwa

Szerokość geograficzna: 56-55N, Długość geograficzna: 023-58E, wysokość: 10 m

Aktualna obserwacja pogody

Raport powstał 32 minut temu, godzina 15:20 UTC
Wiatr 2 kt z kierunków zmiennych
Temperatura 22°C
Wilgotność 65%
Ciśnienie 1019 hPa
Widzialność 10 km lub więcej
Brak chmur poniżej 1500 m i brak chmur cumulonimbus

METAR: EVRA 161520Z VRB02KT CAVOK 22/15 Q1019 NOSIG

czas: 18:52 (15:52 UTC)

Prognoza

Raport powstał 1 godzina i 51 minut temu, godzina 14:01 UTC
Prognoza ważna od 16 godzina 15 UTC do 17 godzina 15 UTC
Wiatr 2 kt z kierunków zmiennych
Widzialność 10 km lub więcej
Rozproszone chmury na wysokości 3000 ft
Przejściowo
od 16 godzina 21 UTC do 17 godzina 04 UTC
Widzialność: 0700 m
Przerywane chmury na wysokości 200 ft
mgła
Stopniowe zmiany
od 17 godzina 06 UTC do 17 godzina 08 UTC
Wiatr 7 kt od południowo-południowy wschód

TAF: EVRA 161401Z 1615/1715 VRB02KT 9999 SCT030 TEMPO 1621/1704 0700 FG BKN002 BECMG 1706/1708 15007KT

Obserwacja i prognoza pogody dla ponad 4000 lotnisk (raport METAR i TAF).

Dostępne stacje oznaczono żółtymi i czerwonymi punktami na mapie.

Najedź kursorem aby zobaczyć nazwę stacji.

Kliknij aby zobaczyć obserwacje i prognozy pogody.

Aby zmienić mapę: kliknij na zielony przycisk z czarnym krzyżykiem, aby powiększyć; na zielony przycisk z myślnikiem, aby pomniejszyć; na zielone strzałki, aby przejść do map sąsiednich.


METAR-TAF: